Time;durP1;ratioP1;P1;durP2;ratioP2;P2;SDS_P1;SDS_P2;PMS_P1;PMS_P2;Temp;Humidity;BMP_temperature;BMP_pressure;BME280_temperature;BME280_humidity;BME280_pressure;Samples;Min_cycle;Max_cycle;Signal;HPM_P1;HPM_P2
2023/01/07 00:03:38;;;;;;;;;2.25;2.25;;;;;9.24;96.76;100811.03;4774306;29;45375;-91
2023/01/07 00:06:14;;;;;;;;;4.00;4.00;;;;;10.44;95.58;101004.16;4739304;29;45505;-92
2023/01/07 00:08:46;;;;;;;;;3.75;3.75;;;;;9.80;98.24;100894.88;4759530;29;45706;-90
2023/01/07 00:11:16;;;;;;;;;4.00;4.00;;;;;8.53;98.19;100679.09;4776352;29;47720;-92
2023/01/07 00:14:00;;;;;;;;;3.50;3.50;;;;;10.31;98.26;100969.06;4808918;29;44780;-90
2023/01/07 00:16:41;;;;;;;;;2.25;2.00;;;;;10.43;97.08;101002.44;4805120;29;45383;-93
2023/01/07 00:19:21;;;;;;;;;4.00;4.00;;;;;9.71;97.30;100869.44;4796713;29;45507;-93
2023/01/07 00:21:53;;;;;;;;;2.00;2.00;;;;;9.78;96.13;100873.75;4823711;29;46808;-90
2023/01/07 00:24:36;;;;;;;;;3.00;2.50;;;;;8.74;96.94;100690.31;4851713;29;45448;-92
2023/01/07 00:27:09;;;;;;;;;5.00;4.25;;;;;8.53;96.48;100664.16;4835663;29;45544;-92
2023/01/07 00:30:04;;;;;;;;;4.00;4.00;;;;;8.94;96.92;100712.03;4772231;29;45714;-91
2023/01/07 00:35:28;;;;;;;;;2.50;2.50;;;;;8.77;95.98;100688.50;4783694;29;45355;-92
2023/01/07 00:38:08;;;;;;;;;5.75;3.00;;;;;10.14;95.92;100921.75;4782252;29;45423;-92
2023/01/07 00:40:48;;;;;;;;;1.75;1.75;;;;;8.90;95.41;100694.53;4783658;29;45341;-92
2023/01/07 00:43:14;;;;;;;;;2.00;2.00;;;;;9.31;97.02;100768.78;4795691;29;47344;-92
2023/01/07 00:46:05;;;;;;;;;4.00;4.00;;;;;8.66;96.22;100635.91;4797649;29;45405;-92
2023/01/07 00:48:36;;;;;;;;;4.00;3.25;;;;;8.77;96.89;100650.75;4797705;29;45473;-92
2023/01/07 00:51:17;;;;;;;;;3.00;3.00;;;;;9.24;96.92;100731.03;4783768;29;45562;-92
2023/01/07 00:54:00;;;;;;;;;3.00;2.50;;;;;9.09;97.77;100703.09;4779441;29;45682;-92
2023/01/07 00:56:26;;;;;;;;;4.25;2.75;;;;;9.52;97.56;100768.53;4792756;29;45290;-92
2023/01/07 00:59:04;;;;;;;;;2.00;2.00;;;;;9.46;98.04;100772.97;4792330;29;45059;-93
2023/01/07 01:01:46;;;;;;;;;3.75;3.00;;;;;8.62;97.03;100618.38;4820047;29;45445;-92
2023/01/07 01:04:12;;;;;;;;;2.25;2.25;;;;;10.36;96.75;100910.91;4837105;29;46888;-92
2023/01/07 01:06:40;;;;;;;;;3.25;3.25;;;;;10.34;96.43;100888.94;4840032;29;45516;-92
2023/01/07 01:09:34;;;;;;;;;;;;;;;;;;;;;
2023/01/07 01:12:25;;;;;;;;;6.00;3.50;;;;;8.72;96.10;100632.34;4858280;29;69112;-92
2023/01/07 01:14:57;;;;;;;;;4.25;3.75;;;;;8.42;96.06;100580.84;4846865;29;47243;-92
2023/01/07 01:20:45;;;;;;;;;7.00;4.00;;;;;9.94;96.88;100823.41;4850601;29;45334;-92
2023/01/07 01:23:19;;;;;;;;;3.50;3.25;;;;;9.53;96.66;100740.34;4839296;29;45457;-93
2023/01/07 01:26:18;;;;;;;;;3.75;3.75;;;;;9.58;96.91;100746.44;4849777;29;46686;-92
2023/01/07 01:35:28;;;;;;;;;3.00;3.00;;;;;8.35;95.95;100535.25;4810293;29;45451;-91
2023/01/07 01:38:06;;;;;;;;;2.75;2.75;;;;;8.14;96.78;100507.41;4828746;29;47732;-93
2023/01/07 02:28:02;;;;;;;;;1.00;1.00;;;;;10.19;96.11;100820.41;4894740;28;45169;-90
2023/01/07 02:30:33;;;;;;;;;5.00;3.75;;;;;8.87;96.40;100604.94;4903760;29;45379;-91
2023/01/07 02:33:44;;;;;;;;;2.00;2.00;;;;;9.07;95.72;100618.72;4894031;29;47144;-91
2023/01/07 02:36:50;;;;;;;;;3.00;3.00;;;;;10.18;96.74;100814.25;4890542;29;45193;-93
2023/01/07 02:39:22;;;;;;;;;1.75;1.75;;;;;10.18;96.74;100808.13;4899534;29;45207;-93
2023/01/07 02:49:09;;;;;;;;;5.25;4.25;;;;;8.58;97.03;100529.75;4888284;29;45170;-93
2023/01/07 02:51:51;;;;;;;;;3.50;2.00;;;;;10.12;97.01;100796.72;4866289;29;45330;-92
2023/01/07 02:54:53;;;;;;;;;2.25;2.25;;;;;10.13;97.05;100794.97;4869920;29;45510;-93
2023/01/07 02:58:01;;;;;;;;;5.00;4.25;;;;;10.12;97.05;100783.53;4872723;29;45434;-92
2023/01/07 03:00:36;;;;;;;;;2.50;2.50;;;;;10.13;97.30;100772.06;4835634;29;45495;-92
2023/01/07 03:03:28;;;;;;;;;3.75;1.25;;;;;9.73;96.27;100719.84;4873104;29;45466;-92
2023/01/07 03:06:24;;;;;;;;;5.50;2.25;;;;;10.11;96.86;100772.97;4870645;29;45437;-92
2023/01/07 03:09:08;;;;;;;;;1.00;1.00;;;;;9.69;96.52;100686.47;4876784;29;47074;-92
2023/01/07 03:12:10;;;;;;;;;1.50;1.50;;;;;10.10;97.13;100758.91;4868845;29;45354;-92
2023/01/07 03:14:45;;;;;;;;;2.00;2.00;;;;;9.96;97.09;100732.72;4850230;29;45271;-92
2023/01/07 03:17:30;;;;;;;;;3.25;2.00;;;;;9.72;97.52;100696.13;4866011;29;45380;-92
2023/01/07 03:19:59;;;;;;;;;1.75;1.75;;;;;9.13;96.79;100587.91;4873349;29;45536;-92
2023/01/07 03:22:31;;;;;;;;;1.50;1.00;;;;;8.32;96.46;100445.75;4873327;29;45475;-92
2023/01/07 03:25:13;;;;;;;;;;;;;;;;;;;;;
2023/01/07 03:27:51;;;;;;;;;;;;;;;;;;;;;
2023/01/07 03:30:22;;;;;;;;;0.75;0.75;;;;;8.27;96.22;100419.47;4876846;29;73413;-92
2023/01/07 03:33:15;;;;;;;;;1.75;1.50;;;;;10.10;96.17;100750.13;4879430;29;44724;-93
2023/01/07 03:35:49;;;;;;;;;1.75;1.00;;;;;9.67;95.36;100648.69;4873223;29;45281;-91
2023/01/07 03:38:32;;;;;;;;;2.00;2.00;;;;;8.86;95.45;100508.31;4894316;29;45448;-92
2023/01/07 03:41:03;;;;;;;;;2.25;2.00;;;;;9.76;94.90;100656.47;4887740;29;47220;-92
2023/01/07 03:43:37;;;;;;;;;1.00;1.00;;;;;8.73;95.27;100501.44;4867196;29;45459;-92
2023/01/07 03:46:20;;;;;;;;;1.00;1.00;;;;;8.50;95.52;100452.56;4895781;29;45189;-92
2023/01/07 03:48:50;;;;;;;;;1.00;1.00;;;;;8.14;95.02;100370.50;4904919;28;45403;-92
2023/01/07 03:51:16;;;;;;;;;1.00;1.00;;;;;8.40;95.94;100416.69;4872529;29;47361;-91
2023/01/07 03:53:47;;;;;;;;;2.00;2.00;;;;;8.85;95.56;100490.72;4903850;29;45305;-92
2023/01/07 03:56:15;;;;;;;;;3.50;2.50;;;;;8.29;95.21;100404.53;4889334;29;44621;-92
2023/01/07 03:59:06;;;;;;;;;0.25;0.25;;;;;10.10;96.10;100686.75;4896767;29;45237;-92
2023/01/07 04:01:40;;;;;;;;;1.75;1.75;;;;;9.67;95.15;100610.84;4894948;29;47692;-93
2023/01/07 04:04:11;;;;;;;;;1.75;1.75;;;;;10.08;95.14;100686.78;4881995;29;45521;-92
2023/01/07 04:06:57;;;;;;;;;2.00;1.00;;;;;8.97;93.85;100480.00;4897441;29;45233;-93
2023/01/07 04:09:23;;;;;;;;;1.25;1.25;;;;;8.70;94.78;100458.44;4882217;29;44819;-92
2023/01/07 04:11:59;;;;;;;;;1.50;1.50;;;;;9.66;94.93;100591.50;4908367;29;46960;-94
2023/01/07 04:14:31;;;;;;;;;2.00;2.00;;;;;8.53;94.81;100416.53;4886096;29;45404;-93
2023/01/07 04:17:00;;;;;;;;;1.00;1.00;;;;;9.72;94.39;100598.47;4872659;29;45245;-92
2023/01/07 04:19:37;;;;;;;;;1.00;1.00;;;;;10.07;94.95;100655.09;4872633;29;45356;-93
2023/01/07 04:22:16;;;;;;;;;;;;;;;;;;;;;
2023/01/07 04:24:44;;;;;;;;;1.25;1.25;;;;;9.63;93.62;100570.44;4890773;29;72012;-92
2023/01/07 04:27:24;;;;;;;;;;;;;;;;;;;;;
2023/01/07 04:29:57;;;;;;;;;1.25;0.25;;;;;8.75;90.21;100418.00;4887817;29;69528;-92
2023/01/07 04:32:25;;;;;;;;;1.00;1.00;;;;;9.17;92.06;100506.09;4871520;29;47291;-93
2023/01/07 04:34:56;;;;;;;;;1.00;1.00;;;;;8.73;93.26;100425.03;4872114;29;45943;-92
2023/01/07 04:37:25;;;;;;;;;1.00;1.00;;;;;7.99;93.22;100292.63;4908327;29;44747;-92
2023/01/07 04:40:14;;;;;;;;;1.25;1.25;;;;;9.39;92.38;100530.34;4879364;29;45231;-92
2023/01/07 04:42:50;;;;;;;;;2.00;2.00;;;;;9.36;92.70;100530.41;4911701;28;46797;-92
2023/01/07 04:45:33;;;;;;;;;0.00;0.00;;;;;9.40;93.66;100536.53;4882180;29;45515;-92
2023/01/07 04:48:25;;;;;;;;;1.00;1.00;;;;;8.11;92.28;100312.63;4874718;29;45402;-92
2023/01/07 04:50:57;;;;;;;;;2.00;2.00;;;;;9.64;93.61;100601.22;4891763;29;45147;-93
2023/01/07 04:53:26;;;;;;;;;2.50;2.50;;;;;7.93;93.08;100293.56;4884330;29;47288;-92
2023/01/07 04:56:04;;;;;;;;;3.25;2.50;;;;;7.44;93.52;100210.03;4885145;29;45383;-93
2023/01/07 04:58:42;;;;;;;;;2.00;2.00;;;;;8.32;92.92;100364.09;4885941;29;45395;-92
2023/01/07 05:01:12;;;;;;;;;3.25;3.25;;;;;7.27;94.28;100197.09;4886392;29;45252;-92
2023/01/07 05:03:45;;;;;;;;;4.25;3.75;;;;;9.06;93.83;100479.91;4885978;29;46864;-92
2023/01/07 05:06:11;;;;;;;;;3.00;2.00;;;;;9.24;94.62;100520.03;4875137;29;45249;-93
2023/01/07 05:08:48;;;;;;;;;5.00;3.75;;;;;9.36;93.29;100545.38;4887726;29;44682;-91
2023/01/07 05:11:20;;;;;;;;;4.00;3.00;;;;;7.76;93.11;100285.03;4900882;29;45262;-92
2023/01/07 05:13:49;;;;;;;;;3.75;3.00;;;;;8.34;93.94;100379.00;4885199;29;46997;-92
2023/01/07 05:16:16;;;;;;;;;2.00;2.00;;;;;8.82;94.42;100443.34;4878789;29;45377;-92
2023/01/07 05:18:45;;;;;;;;;4.50;3.00;;;;;8.53;93.39;100436.72;4877974;29;45303;-93
2023/01/07 05:21:11;;;;;;;;;3.00;3.00;;;;;8.09;94.14;100349.53;4881285;29;45310;-93
2023/01/07 05:23:42;;;;;;;;;2.00;2.00;;;;;7.84;93.15;100304.22;4899373;29;47215;-92
2023/01/07 05:26:20;;;;;;;;;1.25;1.25;;;;;7.47;94.15;100249.44;4885134;29;45346;-92
2023/01/07 05:28:49;;;;;;;;;3.25;3.25;;;;;8.60;95.07;100448.91;4889574;29;45240;-92
2023/01/07 05:31:19;;;;;;;;;3.75;2.50;;;;;8.61;95.72;100466.47;4875849;29;46580;-92
2023/01/07 05:33:47;;;;;;;;;5.00;3.75;;;;;6.97;93.92;100174.66;4883689;29;47370;-92
2023/01/07 05:36:13;;;;;;;;;4.00;3.00;;;;;7.63;94.53;100295.69;4874083;29;45372;-91
2023/01/07 05:38:39;;;;;;;;;4.00;2.50;;;;;7.67;95.15;100308.81;4872674;29;44935;-92
2023/01/07 05:41:11;;;;;;;;;6.00;5.00;;;;;8.32;95.27;100441.38;4897221;29;45332;-92
2023/01/07 05:43:38;;;;;;;;;4.75;3.00;;;;;7.90;95.78;100351.50;4892646;29;45505;-91
2023/01/07 05:46:07;;;;;;;;;5.75;4.25;;;;;7.05;95.19;100222.78;4873039;29;45406;-93
2023/01/07 05:48:37;;;;;;;;;5.75;5.75;;;;;7.34;96.33;100263.63;4892902;29;45222;-92
2023/01/07 05:51:03;;;;;;;;;4.25;4.25;;;;;8.71;96.16;100520.81;4873992;29;45291;-92
2023/01/07 05:53:31;;;;;;;;;3.25;3.25;;;;;6.73;95.44;100181.94;4887349;29;47356;-93
2023/01/07 05:55:58;;;;;;;;;8.00;4.25;;;;;6.47;94.90;100156.81;4875163;29;45296;-92
2023/01/07 05:58:25;;;;;;;;;6.00;6.00;;;;;7.93;95.79;100398.84;4906414;29;45287;-92
2023/01/07 06:00:54;;;;;;;;;3.00;3.00;;;;;8.37;95.02;100493.97;4878379;29;45274;-91
2023/01/07 06:03:20;;;;;;;;;4.25;3.75;;;;;8.16;95.80;100445.06;4909577;29;47993;-93
2023/01/07 06:05:46;;;;;;;;;5.00;5.00;;;;;6.40;94.48;100158.63;4877754;29;44790;-92
2023/01/07 06:08:12;;;;;;;;;4.50;4.50;;;;;7.67;96.40;100366.69;4872901;29;45517;-91
2023/01/07 06:10:43;;;;;;;;;8.50;4.00;;;;;6.99;95.36;100264.88;4877348;29;45350;-92
2023/01/07 06:13:14;;;;;;;;;4.00;4.00;;;;;6.71;95.88;100228.34;4891224;29;46918;-92
2023/01/07 06:15:40;;;;;;;;;3.50;3.50;;;;;7.06;95.79;100266.53;4883869;29;45319;-93
2023/01/07 06:18:08;;;;;;;;;1.00;1.00;;;;;6.75;95.09;100240.56;4897247;29;45264;-91
2023/01/07 06:20:35;;;;;;;;;6.00;6.00;;;;;6.81;96.38;100260.69;4883270;29;45335;-91
2023/01/07 06:23:13;;;;;;;;;;;;;;;;;;;;;
2023/01/07 06:25:53;;;;;;;;;6.00;5.00;;;;;5.95;96.58;100110.00;4887716;29;73016;-92
2023/01/07 06:28:31;;;;;;;;;5.00;5.00;;;;;5.90;96.62;100119.69;4890138;29;45476;-93
2023/01/07 06:31:08;;;;;;;;;5.25;5.25;;;;;8.19;96.42;100506.44;4884462;29;45345;-93
2023/01/07 06:33:40;;;;;;;;;7.25;5.00;;;;;6.44;97.20;100230.38;4882644;29;47089;-92
2023/01/07 06:36:09;;;;;;;;;6.75;4.75;;;;;6.11;96.54;100148.38;4893618;29;45417;-93
2023/01/07 06:38:48;;;;;;;;;;;;;;;;;;;;;
2023/01/07 06:41:17;;;;;;;;;5.00;5.00;;;;;6.88;97.21;100293.91;4883404;29;69972;-92
2023/01/07 06:43:55;;;;;;;;;4.75;3.75;;;;;6.84;96.17;100308.78;4887519;29;46624;-91
2023/01/07 06:46:20;;;;;;;;;4.75;4.75;;;;;6.21;96.66;100199.91;4873963;29;44742;-91
2023/01/07 06:48:58;;;;;;;;;2.00;2.00;;;;;7.61;97.62;100450.06;4893652;29;45398;-91
2023/01/07 06:51:32;;;;;;;;;4.50;3.50;;;;;6.21;97.12;100217.44;4891794;29;45257;-90
2023/01/07 06:54:04;;;;;;;;;3.50;3.50;;;;;7.66;96.36;100450.00;4892620;29;45630;-92
2023/01/07 06:56:38;;;;;;;;;6.25;5.00;;;;;7.84;96.33;100501.56;4893732;29;45187;-92
2023/01/07 06:59:10;;;;;;;;;4.75;4.75;;;;;7.81;97.40;100488.44;4902181;29;45253;-92
2023/01/07 07:01:41;;;;;;;;;4.50;3.75;;;;;7.33;97.74;100401.22;4889928;29;45412;-92
2023/01/07 07:04:20;;;;;;;;;6.00;4.75;;;;;6.52;96.53;100260.03;4907607;29;47333;-92
2023/01/07 07:06:54;;;;;;;;;4.75;4.75;;;;;6.54;96.29;100279.31;4901091;29;45097;-91
2023/01/07 07:09:30;;;;;;;;;4.00;4.00;;;;;7.63;95.36;100463.19;4895460;29;45359;-92
2023/01/07 07:12:19;;;;;;;;;4.00;4.00;;;;;6.62;95.96;100283.59;4895521;29;45421;-90
2023/01/07 07:14:50;;;;;;;;;4.50;4.50;;;;;5.80;96.70;100164.34;4889689;29;46853;-91
2023/01/07 07:17:15;;;;;;;;;8.00;4.00;;;;;5.90;97.25;100177.38;4896646;29;45436;-92
2023/01/07 07:19:44;;;;;;;;;4.00;4.00;;;;;6.16;96.27;100225.31;4891508;29;45568;-90
2023/01/07 07:22:10;;;;;;;;;10.25;4.75;;;;;6.83;96.92;100340.34;4908018;29;45439;-92
2023/01/07 07:24:38;;;;;;;;;6.75;6.75;;;;;6.89;97.61;100377.06;4891106;29;47394;-90
2023/01/07 07:27:06;;;;;;;;;4.00;4.00;;;;;5.32;96.99;100104.31;4907421;29;45503;-91
2023/01/07 07:29:47;;;;;;;;;7.00;5.00;;;;;5.22;96.24;100083.44;4913750;29;45376;-90
2023/01/07 07:32:15;;;;;;;;;4.50;4.00;;;;;5.29;96.86;100088.63;4920076;29;45178;-89
2023/01/07 07:34:47;;;;;;;;;4.00;4.00;;;;;6.08;96.89;100236.78;4913513;29;47728;-90
2023/01/07 07:40:08;;;;;;;;;4.00;3.00;;;;;5.46;97.05;100154.03;4907695;29;45408;-91
2023/01/07 07:42:40;;;;;;;;;3.00;3.00;;;;;6.00;96.93;100219.31;4907330;28;45257;-92
2023/01/07 07:48:17;;;;;;;;;;;;;;;;;;;;;
2023/01/07 07:50:50;;;;;;;;;5.00;3.75;;;;;6.39;96.83;100310.91;4920833;29;45346;-91
2023/01/07 07:53:48;;;;;;;;;6.75;6.75;;;;;6.11;96.61;100269.09;4887736;29;45611;-91
2023/01/07 07:56:18;;;;;;;;;5.00;5.00;;;;;5.47;97.36;100166.28;4890316;29;47884;-90
2023/01/07 07:58:57;;;;;;;;;7.75;6.50;;;;;6.47;96.46;100334.47;4892011;29;45374;-90
2023/01/07 08:01:26;;;;;;;;;4.00;4.00;;;;;5.57;96.37;100171.47;4894037;29;44791;-90
2023/01/07 08:03:55;;;;;;;;;4.25;4.00;;;;;5.58;96.21;100162.72;4895635;29;45300;-89
2023/01/07 08:06:24;;;;;;;;;4.50;4.50;;;;;5.31;96.48;100117.44;4897192;29;46754;-90
2023/01/07 08:08:52;;;;;;;;;6.00;4.50;;;;;5.37;96.42;100127.88;4908816;29;45200;-90
2023/01/07 08:11:29;;;;;;;;;7.00;5.00;;;;;7.15;97.46;100423.28;4889467;28;45333;-92
2023/01/07 08:14:01;;;;;;;;;2.50;2.50;;;;;6.17;95.32;100274.31;4888303;29;45419;-93
2023/01/07 08:16:29;;;;;;;;;7.50;4.75;;;;;6.36;97.09;100289.91;4872258;29;46807;-93
2023/01/07 08:19:00;;;;;;;;;7.50;5.00;;;;;4.88;96.02;100028.63;4911119;29;45575;-91
2023/01/07 08:21:47;;;;;;;;;8.25;5.00;;;;;7.04;96.50;100383.97;4909007;29;45133;-92
2023/01/07 08:40:44;;;;;;;;;5.50;4.50;;;;;5.41;94.74;100074.56;4911083;28;45290;-92
2023/01/07 08:43:15;;;;;;;;;6.00;6.00;;;;;6.62;93.70;100259.97;4897807;29;45387;-92
2023/01/07 08:48:58;;;;;;;;;5.00;4.00;;;;;7.53;94.66;100382.63;4837333;29;45283;-92
2023/01/07 08:51:26;;;;;;;;;4.25;4.25;;;;;7.59;94.75;100372.03;4820843;29;46950;-92
2023/01/07 08:53:57;;;;;;;;;6.25;6.25;;;;;7.64;93.97;100386.88;4832961;29;45529;-91
2023/01/07 08:56:59;;;;;;;;;;;;;;;;;;;;;
2023/01/07 09:00:07;;;;;;;;;5.75;4.25;;;;;6.89;94.01;100207.19;4836560;29;45237;-94
2023/01/07 09:06:03;;;;;;;;;7.50;7.50;;;;;7.52;93.60;100283.59;4821579;29;45414;-92
2023/01/07 09:09:15;;;;;;;;;6.50;6.50;;;;;5.84;92.34;100006.03;4803230;29;45351;-92
2023/01/07 09:11:43;;;;;;;;;8.25;6.00;;;;;6.85;93.44;100137.16;4773769;29;45869;-91
2023/01/07 09:14:14;;;;;;;;;2.50;2.50;;;;;6.67;93.43;100084.84;4760417;29;48294;-90
2023/01/07 09:16:43;;;;;;;;;4.00;4.00;;;;;7.45;91.42;100198.63;4755505;29;45235;-91
2023/01/07 09:19:20;;;;;;;;;4.50;4.50;;;;;7.37;92.19;100166.31;4736580;30;45608;-91
2023/01/07 09:21:46;;;;;;;;;3.75;2.00;;;;;6.76;92.04;100074.22;4718840;30;45525;-90
2023/01/07 09:24:27;;;;;;;;;5.00;5.00;;;;;7.55;91.35;100162.56;4738716;29;46359;-90
2023/01/07 09:26:54;;;;;;;;;5.25;5.25;;;;;7.61;90.93;100167.72;4744134;29;45471;-91
2023/01/07 09:29:57;;;;;;;;;;;;;;;;;;;;;
2023/01/07 09:32:31;;;;;;;;;6.50;5.00;;;;;8.28;90.91;100221.09;4767029;29;68629;-91
2023/01/07 09:35:22;;;;;;;;;2.25;2.00;;;;;8.57;86.90;100225.03;4739680;29;45737;-91
2023/01/07 09:38:10;;;;;;;;;6.75;5.75;;;;;8.46;90.26;100203.28;4808837;29;46065;-91
2023/01/07 09:40:46;;;;;;;;;4.50;4.50;;;;;8.18;89.34;100133.50;4835089;29;45433;-91
2023/01/07 09:43:47;;;;;;;;;5.25;4.50;;;;;9.29;88.42;100270.28;4874144;29;45350;-90
2023/01/07 09:49:23;;;;;;;;;6.50;6.50;;;;;7.98;86.91;100011.88;4855454;29;45373;-92
2023/01/07 09:51:58;;;;;;;;;6.25;5.25;;;;;9.18;88.41;100183.47;4882380;29;45266;-94
2023/01/07 09:54:35;;;;;;;;;3.75;3.75;;;;;7.64;86.75;99918.66;4854691;29;45656;-93
2023/01/07 09:57:02;;;;;;;;;4.25;4.25;;;;;9.64;87.47;100271.38;4857460;29;47155;-92
2023/01/07 09:59:33;;;;;;;;;7.50;5.00;;;;;8.90;85.91;100135.72;4846506;29;44928;-92
2023/01/07 10:02:18;;;;;;;;;5.75;5.75;;;;;7.81;88.07;99956.94;4864046;29;45313;-92
2023/01/07 10:05:04;;;;;;;;;7.75;7.00;;;;;9.27;89.57;100166.59;4864419;29;45255;-92
2023/01/07 10:07:48;;;;;;;;;5.00;5.00;;;;;9.77;87.05;100246.41;4872317;29;46936;-94
2023/01/07 10:10:25;;;;;;;;;11.00;6.00;;;;;9.01;89.64;100111.78;4857131;29;45425;-93
2023/01/07 10:13:29;;;;;;;;;5.25;5.25;;;;;7.72;87.40;99900.09;4856465;29;45318;-92
2023/01/07 10:16:16;;;;;;;;;7.50;5.25;;;;;9.01;89.26;100117.91;4852166;29;45418;-92
2023/01/07 10:19:12;;;;;;;;;7.50;5.50;;;;;9.75;85.80;100253.50;4856333;29;47478;-92
2023/01/07 10:21:49;;;;;;;;;4.00;4.00;;;;;8.75;88.99;100078.06;4850935;29;45507;-91
2023/01/07 10:24:38;;;;;;;;;5.00;3.50;;;;;9.15;88.85;100161.56;4852968;29;45333;-93
2023/01/07 10:27:12;;;;;;;;;5.25;5.25;;;;;9.67;87.56;100244.91;4865756;29;44809;-93
2023/01/07 10:36:14;;;;;;;;;4.00;3.00;;;;;9.63;87.38;100218.63;1201554;23;46446;-90
2023/01/07 10:38:51;;;;;;;;;4.00;4.00;;;;;9.62;85.36;100223.00;4865945;29;45221;-91
2023/01/07 10:41:38;;;;;;;;;5.00;5.00;;;;;8.79;88.08;100087.63;4854967;29;46635;-92
2023/01/07 10:44:53;;;;;;;;;4.50;3.25;;;;;8.50;87.08;100031.09;4854000;29;44853;-91
2023/01/07 10:47:49;;;;;;;;;7.25;4.00;;;;;9.68;88.18;100199.13;4839530;29;45272;-91
2023/01/07 10:50:52;;;;;;;;;4.75;4.75;;;;;8.58;85.21;99984.41;4833040;29;45449;-91
2023/01/07 10:53:46;;;;;;;;;3.25;3.25;;;;;9.82;83.87;100196.16;4849365;29;48028;-92
2023/01/07 10:56:42;;;;;;;;;4.25;3.00;;;;;9.90;85.17;100182.78;4835828;29;45376;-91
2023/01/07 11:00:10;;;;;;;;;4.00;4.00;;;;;9.98;83.09;100201.97;4839544;29;45470;-92
2023/01/07 11:02:32;;;;;;;;;7.50;4.25;;;;;8.23;82.37;99878.03;4861116;29;44872;-91
2023/01/07 11:05:00;;;;;;;;;4.00;4.00;;;;;10.01;84.60;100180.78;4856813;29;47188;-91
2023/01/07 11:07:47;;;;;;;;;2.50;2.50;;;;;10.00;82.48;100152.63;4842638;29;44885;-92
2023/01/07 11:10:20;;;;;;;;;4.25;3.00;;;;;8.64;85.19;99934.25;4842420;29;45348;-92
2023/01/07 11:12:49;;;;;;;;;2.25;2.25;;;;;8.08;83.00;99845.00;4849560;29;45450;-92
2023/01/07 11:15:31;;;;;;;;;6.25;3.75;;;;;9.53;82.53;100062.25;4849672;29;47511;-92
2023/01/07 11:18:25;;;;;;;;;3.50;3.50;;;;;8.47;81.55;99876.66;4833910;29;45490;-91
2023/01/07 11:20:55;;;;;;;;;5.00;5.00;;;;;9.05;85.86;99969.31;4832170;29;45578;-89
2023/01/07 11:23:42;;;;;;;;;4.00;4.00;;;;;8.92;82.65;99927.47;4854257;29;45518;-92
2023/01/07 11:26:11;;;;;;;;;7.00;6.75;;;;;9.78;84.72;100062.56;4852371;29;48182;-93
2023/01/07 11:29:00;;;;;;;;;2.75;1.00;;;;;10.32;81.35;100130.72;4854758;29;46117;-91
2023/01/07 11:31:47;;;;;;;;;2.75;2.75;;;;;10.45;81.93;100111.91;4838884;29;45330;-91
2023/01/07 11:34:50;;;;;;;;;6.00;5.25;;;;;10.49;81.49;100111.78;4849060;29;45235;-93
2023/01/07 11:37:40;;;;;;;;;5.00;5.00;;;;;9.73;81.72;99986.13;4854924;29;47367;-91
2023/01/07 11:40:14;;;;;;;;;3.25;3.25;;;;;10.53;82.66;100099.34;4852439;29;45479;-92
2023/01/07 11:42:59;;;;;;;;;4.25;4.00;;;;;10.54;84.28;100103.75;4869091;29;45360;-92
2023/01/07 11:45:32;;;;;;;;;5.25;4.25;;;;;9.73;85.63;99986.13;4842527;29;44841;-92
2023/01/07 11:48:35;;;;;;;;;5.50;5.50;;;;;10.64;83.12;100092.03;4861377;29;47120;-92
2023/01/07 11:51:10;;;;;;;;;4.25;3.50;;;;;9.58;85.46;99896.78;4856113;29;45175;-90
2023/01/07 11:53:53;;;;;;;;;2.75;0.75;;;;;10.81;80.66;100088.91;4858249;29;45275;-92
2023/01/07 11:56:26;;;;;;;;;6.25;4.50;;;;;10.69;84.83;100052.25;4874449;29;45415;-94
2023/01/07 11:59:36;;;;;;;;;5.75;5.75;;;;;10.93;80.79;100071.81;4873595;29;45514;-92
2023/01/07 12:02:26;;;;;;;;;5.00;4.50;;;;;10.02;82.28;99905.28;4847669;29;45331;-91
2023/01/07 12:05:16;;;;;;;;;2.75;2.25;;;;;9.58;78.23;99805.34;4850135;29;45408;-90
2023/01/07 12:07:49;;;;;;;;;4.75;4.00;;;;;10.97;81.00;100032.91;4865662;29;45278;-94
2023/01/07 12:10:32;;;;;;;;;5.00;5.00;;;;;11.25;79.41;100077.91;4853254;29;47346;-92
2023/01/07 12:13:06;;;;;;;;;4.25;4.25;;;;;10.23;83.74;99860.66;4868201;29;45309;-89
2023/01/07 12:15:45;;;;;;;;;3.50;3.50;;;;;10.50;84.33;99869.56;4858835;29;45537;-91
2023/01/07 12:18:43;;;;;;;;;5.75;4.00;;;;;11.69;81.00;100050.94;4874356;29;45310;-92
2023/01/07 12:22:13;;;;;;;;;;;;;;;;;;;;;
2023/01/07 12:25:20;;;;;;;;;4.25;4.00;;;;;11.69;81.85;100035.03;4860795;29;71993;-92
2023/01/07 12:28:22;;;;;;;;;;;;;;;;;;;;;
2023/01/07 12:34:45;;;;;;;;;4.00;4.00;;;;;10.58;80.82;99869.31;4810571;29;45692;-92
2023/01/07 12:37:31;;;;;;;;;5.50;3.00;;;;;10.36;81.61;99869.13;4809775;29;45438;-93
2023/01/07 12:40:22;;;;;;;;;4.00;4.00;;;;;9.58;80.78;99730.56;4816597;29;45306;-91
2023/01/07 12:42:58;;;;;;;;;5.75;5.75;;;;;10.36;83.32;99835.66;4824659;29;45294;-94
2023/01/07 12:45:45;;;;;;;;;5.50;4.75;;;;;10.94;83.03;99974.84;4820664;29;47107;-93
2023/01/07 12:48:27;;;;;;;;;3.00;3.00;;;;;9.40;83.06;99713.53;4812951;29;45260;-93
2023/01/07 12:51:02;;;;;;;;;8.00;4.00;;;;;9.05;84.37;99660.88;4811692;29;45381;-93
2023/01/07 12:53:44;;;;;;;;;4.50;4.50;;;;;11.15;83.20;100021.75;4811165;29;45455;-93
2023/01/07 12:56:48;;;;;;;;;4.25;4.25;;;;;9.35;79.81;99750.59;4813806;29;46722;-92
2023/01/07 12:59:19;;;;;;;;;4.50;3.25;;;;;11.00;80.99;100030.19;4795534;29;45323;-89
2023/01/07 13:06:12;;;;;;;;;4.25;4.25;;;;;10.85;79.61;100013.00;4765962;29;45553;-93
2023/01/07 13:13:04;;;;;;;;;;;;;;;;;;;;;
2023/01/07 13:16:11;;;;;;;;;7.25;6.25;;;;;10.70;81.90;100013.44;4813975;29;67919;-90
2023/01/07 13:22:39;;;;;;;;;4.00;4.00;;;;;10.69;84.76;99998.50;4778761;29;45909;-92
2023/01/07 13:25:53;;;;;;;;;7.00;5.25;;;;;10.70;86.71;99984.38;4779212;29;46010;-92
2023/01/07 13:35:50;;;;;;;;;8.25;6.50;;;;;9.25;83.39;99772.84;4773076;29;45758;-93
2023/01/07 14:06:41;;;;;;;;;;;;;;;;;;;;;
2023/01/07 14:10:01;;;;;;;;;4.00;4.00;;;;;10.03;86.71;99967.72;4759817;29;44745;-93
2023/01/07 14:20:15;;;;;;;;;;;;;;;;;;;;;
2023/01/07 14:26:59;;;;;;;;;;;;;;;;;;;;;
2023/01/07 14:30:16;;;;;;;;;;;;;;;;;;;;;
2023/01/07 14:33:09;;;;;;;;;7.75;7.75;;;;;9.39;86.05;99870.06;4724195;30;71919;-92
2023/01/07 14:36:10;;;;;;;;;8.75;5.00;;;;;8.78;88.46;99769.69;4711146;30;45270;-91
2023/01/07 14:39:17;;;;;;;;;7.75;7.00;;;;;10.01;86.96;99968.69;4691181;30;44894;-92
2023/01/07 14:42:41;;;;;;;;;6.50;6.50;;;;;10.03;87.51;99980.94;4687398;30;45753;-92
2023/01/07 14:45:38;;;;;;;;;6.00;6.00;;;;;10.03;87.56;99983.56;4683555;30;45420;-91
2023/01/07 14:48:10;;;;;;;;;7.25;7.25;;;;;9.79;87.86;99937.56;4681084;30;45427;-91
2023/01/07 14:50:42;;;;;;;;;7.50;6.00;;;;;9.75;89.58;99941.22;4642204;30;45555;-91
2023/01/07 14:53:28;;;;;;;;;7.50;5.00;;;;;10.01;88.02;99961.63;4642570;30;47179;-91
2023/01/07 14:56:25;;;;;;;;;6.25;5.75;;;;;9.58;88.49;99913.50;4628482;30;45349;-90
2023/01/07 14:59:09;;;;;;;;;7.00;5.25;;;;;9.98;90.29;99966.16;4635415;30;45516;-92
2023/01/07 15:04:54;;;;;;;;;5.25;5.00;;;;;9.92;90.62;99962.75;4665752;30;45312;-91
2023/01/07 15:07:41;;;;;;;;;6.00;6.00;;;;;8.62;90.91;99756.88;4662753;30;45279;-91
2023/01/07 15:16:10;;;;;;;;;7.25;7.25;;;;;8.62;88.85;99767.41;4791737;29;45540;-91
2023/01/07 15:19:02;;;;;;;;;4.25;4.00;;;;;9.17;89.48;99867.09;4810397;29;45476;-92
2023/01/07 15:21:58;;;;;;;;;4.50;4.50;;;;;9.71;91.03;99950.97;4836174;29;45306;-92
2023/01/07 15:24:39;;;;;;;;;8.00;5.25;;;;;9.28;91.00;99893.19;4847385;29;45372;-91
2023/01/07 15:27:17;;;;;;;;;7.25;5.00;;;;;7.75;92.71;99654.53;4843784;29;47389;-91
2023/01/07 15:29:56;;;;;;;;;9.25;4.75;;;;;8.67;93.66;99801.56;4853195;29;45367;-92
2023/01/07 15:32:49;;;;;;;;;7.00;6.00;;;;;9.41;94.63;99937.69;4835094;29;45490;-92
2023/01/07 15:35:26;;;;;;;;;6.25;5.25;;;;;8.32;95.11;99764.59;4848448;29;45581;-92
2023/01/07 15:37:52;;;;;;;;;7.75;6.75;;;;;7.14;95.88;99584.00;4842712;29;48331;-91
2023/01/07 15:40:23;;;;;;;;;6.75;6.75;;;;;7.62;96.08;99667.06;4858311;29;45461;-92
2023/01/07 15:42:54;;;;;;;;;7.00;4.00;;;;;8.45;97.45;99795.94;4860081;29;45287;-92
2023/01/07 15:45:44;;;;;;;;;9.75;6.75;;;;;6.90;96.49;99575.72;4872215;29;45352;-92
2023/01/07 15:48:20;;;;;;;;;11.50;8.25;;;;;6.83;96.04;99552.25;4870384;29;47047;-92
2023/01/07 15:51:01;;;;;;;;;6.25;5.50;;;;;8.18;97.07;99799.16;4863597;29;45420;-93
2023/01/07 15:53:29;;;;;;;;;8.50;7.25;;;;;8.27;97.31;99818.25;4862872;29;45281;-92